createdAt,value
2022-09-21T00:01:28.996Z,5.67
2022-09-21T00:04:00.966Z,6.00
2022-09-21T00:06:32.128Z,5.90
2022-09-21T00:08:59.709Z,5.87
2022-09-21T00:11:29.897Z,5.97
2022-09-21T00:14:04.421Z,5.63
2022-09-21T00:16:35.076Z,5.80
2022-09-21T00:19:02.415Z,6.20
2022-09-21T00:21:29.713Z,6.10
2022-09-21T00:23:57.185Z,5.57
2022-09-21T00:26:27.140Z,5.67
2022-09-21T00:28:57.588Z,4.83
2022-09-21T00:31:25.773Z,4.77
2022-09-21T00:33:53.968Z,5.00
2022-09-21T00:36:24.679Z,5.47
2022-09-21T00:38:59.080Z,5.80
2022-09-21T00:41:28.375Z,6.23
2022-09-21T00:44:25.504Z,6.30
2022-09-21T00:46:56.351Z,6.67
2022-09-21T00:49:25.123Z,7.03
2022-09-21T00:51:53.356Z,6.93
2022-09-21T00:54:30.543Z,7.60
2022-09-21T00:57:01.403Z,6.70
2022-09-21T00:59:31.213Z,6.00
2022-09-21T01:02:00.032Z,6.23
2022-09-21T01:04:28.446Z,6.60
2022-09-21T01:07:00.183Z,5.60
2022-09-21T01:09:28.224Z,6.00
2022-09-21T01:12:30.747Z,5.00
2022-09-21T01:15:26.739Z,4.47
2022-09-21T01:18:12.994Z,4.47
2022-09-21T01:21:26.660Z,5.40
2022-09-21T01:24:03.065Z,5.33
2022-09-21T01:27:01.774Z,5.67
2022-09-21T01:29:33.373Z,5.03
2022-09-21T01:32:09.330Z,5.93
2022-09-21T01:35:03.914Z,5.53
2022-09-21T01:38:09.065Z,5.93
2022-09-21T01:40:44.150Z,5.43
2022-09-21T01:43:18.194Z,4.57
2022-09-21T01:45:50.531Z,5.07
2022-09-21T01:48:22.357Z,4.43
2022-09-21T01:50:54.448Z,6.20
2022-09-21T01:53:38.273Z,7.13
2022-09-21T01:56:25.781Z,6.50
2022-09-21T01:59:08.570Z,6.13
2022-09-21T02:02:00.683Z,6.33
2022-09-21T02:04:27.958Z,5.83
2022-09-21T02:06:55.756Z,5.63
2022-09-21T02:09:24.183Z,6.43
2022-09-21T02:11:51.111Z,6.50
2022-09-21T02:14:24.089Z,6.07
2022-09-21T02:17:25.088Z,6.43
2022-09-21T02:20:19.565Z,6.20
2022-09-21T02:23:09.182Z,6.83
2022-09-21T02:25:47.917Z,6.70
2022-09-21T02:28:51.308Z,6.07
2022-09-21T02:31:50.256Z,6.53
2022-09-21T02:35:16.348Z,6.13
2022-09-21T02:38:16.825Z,6.17
2022-09-21T02:40:55.083Z,6.30
2022-09-21T02:43:32.301Z,6.13
2022-09-21T02:46:19.160Z,6.60
2022-09-21T02:48:57.069Z,5.90
2022-09-21T02:51:44.181Z,5.80
2022-09-21T02:54:17.748Z,5.00
2022-09-21T02:56:48.849Z,5.63
2022-09-21T02:59:18.941Z,5.90
2022-09-21T03:01:45.958Z,5.47
2022-09-21T03:04:13.068Z,4.77
2022-09-21T03:06:41.488Z,4.40
2022-09-21T03:09:09.256Z,4.30
2022-09-21T03:11:36.220Z,4.20
2022-09-21T03:14:08.519Z,4.00
2022-09-21T03:16:39.166Z,4.57
2022-09-21T03:19:06.410Z,4.60
2022-09-21T03:21:33.408Z,4.07
2022-09-21T03:24:00.317Z,4.33
2022-09-21T03:26:27.238Z,4.60
2022-09-21T03:28:54.891Z,4.90
2022-09-21T03:31:22.586Z,4.63
2022-09-21T03:33:49.770Z,4.90
2022-09-21T03:36:16.937Z,5.30
2022-09-21T03:38:44.429Z,6.20
2022-09-21T03:41:11.359Z,6.17
2022-09-21T03:43:38.274Z,6.03
2022-09-21T03:46:05.465Z,6.73
2022-09-21T03:48:32.756Z,5.93
2022-09-21T03:50:59.806Z,5.67
2022-09-21T03:53:26.759Z,6.00
2022-09-21T03:55:53.649Z,6.90
2022-09-21T03:58:22.175Z,6.40
2022-09-21T04:00:49.097Z,7.00
2022-09-21T04:03:15.967Z,6.57
2022-09-21T04:05:42.885Z,7.00
2022-09-21T04:08:10.084Z,7.07
2022-09-21T04:10:37.111Z,5.83
2022-09-21T04:13:04.420Z,5.80
2022-09-21T04:15:31.727Z,6.00
2022-09-21T04:17:59.250Z,6.30
2022-09-21T04:20:27.025Z,6.17
2022-09-21T04:22:54.037Z,5.80
2022-09-21T04:25:21.002Z,5.67
2022-09-21T04:27:48.198Z,6.27
2022-09-21T04:30:16.682Z,6.93
2022-09-21T04:32:44.245Z,6.50
2022-09-21T04:35:11.401Z,5.87
2022-09-21T04:37:38.632Z,5.60
2022-09-21T04:40:07.555Z,5.40
2022-09-21T04:42:34.674Z,6.07
2022-09-21T04:45:01.587Z,6.57
2022-09-21T04:47:31.270Z,6.23
2022-09-21T04:49:58.188Z,6.67
2022-09-21T04:52:25.625Z,7.03
2022-09-21T04:54:53.141Z,7.00
2022-09-21T04:57:20.050Z,6.77
2022-09-21T04:59:47.176Z,6.50
2022-09-21T05:02:14.202Z,6.90
2022-09-21T05:04:41.126Z,7.40
2022-09-21T05:07:08.024Z,6.70
2022-09-21T05:09:53.301Z,6.77
2022-09-21T05:12:20.184Z,8.00
2022-09-21T05:14:47.226Z,8.13
2022-09-21T05:17:14.342Z,9.00
2022-09-21T05:19:41.381Z,7.77
2022-09-21T05:22:08.646Z,7.90
2022-09-21T05:24:35.565Z,7.23
2022-09-21T05:27:02.452Z,7.20
2022-09-21T05:29:29.842Z,6.90
2022-09-21T05:32:12.749Z,6.67
2022-09-21T05:35:09.890Z,6.00
2022-09-21T05:38:17.681Z,6.47
2022-09-21T05:40:47.646Z,7.00
2022-09-21T05:43:15.142Z,6.70
2022-09-21T05:45:47.841Z,7.43
2022-09-21T05:48:22.481Z,7.97
2022-09-21T05:51:09.072Z,6.63
2022-09-21T05:54:11.658Z,7.50
2022-09-21T05:57:03.174Z,7.60
2022-09-21T06:00:05.662Z,6.93
2022-09-21T06:02:53.645Z,7.83
2022-09-21T06:05:21.337Z,8.40
2022-09-21T06:07:48.251Z,8.73
2022-09-21T06:10:16.256Z,8.60
2022-09-21T06:12:43.502Z,8.23
2022-09-21T06:15:14.337Z,10.80
2022-09-21T06:17:41.325Z,15.60
2022-09-21T06:20:09.403Z,17.07
2022-09-21T06:22:36.313Z,14.60
2022-09-21T06:25:03.499Z,13.70
2022-09-21T06:27:30.545Z,12.97
2022-09-21T06:29:57.494Z,13.53
2022-09-21T06:32:24.706Z,12.40
2022-09-21T06:34:51.636Z,11.83
2022-09-21T06:37:18.615Z,12.90
2022-09-21T06:39:45.738Z,12.40
2022-09-21T06:42:14.439Z,13.60
2022-09-21T06:44:41.402Z,14.13
2022-09-21T06:47:08.538Z,13.27
2022-09-21T06:49:39.182Z,13.07
2022-09-21T06:52:08.803Z,13.17
2022-09-21T06:54:36.826Z,12.90
2022-09-21T06:57:03.914Z,13.33
2022-09-21T06:59:31.162Z,12.63
2022-09-21T07:01:58.614Z,14.83
2022-09-21T07:04:25.953Z,14.07
2022-09-21T07:06:53.188Z,12.97
2022-09-21T07:12:08.188Z,13.43
2022-09-21T07:14:37.643Z,12.53
2022-09-21T07:17:08.566Z,12.40
2022-09-21T07:19:36.650Z,11.83
2022-09-21T07:22:03.707Z,9.87
2022-09-21T07:24:30.686Z,9.10
2022-09-21T07:26:58.214Z,10.07
2022-09-21T07:29:25.350Z,9.17
2022-09-21T07:31:52.411Z,8.67
2022-09-21T07:34:19.835Z,8.25
2022-09-21T07:36:46.779Z,8.70
2022-09-21T07:39:13.998Z,8.30
2022-09-21T07:41:41.057Z,9.40
2022-09-21T07:44:08.110Z,12.43
2022-09-21T07:46:37.130Z,10.77
2022-09-21T07:49:06.089Z,9.68
2022-09-21T07:51:33.295Z,10.60
2022-09-21T07:54:00.237Z,9.85
2022-09-21T07:56:27.229Z,10.25
2022-09-21T07:59:05.929Z,8.73
2022-09-21T08:01:39.565Z,8.57
2022-09-21T08:04:09.829Z,8.25
2022-09-21T08:06:40.161Z,8.60
2022-09-21T08:09:08.675Z,10.02
2022-09-21T08:11:37.455Z,10.68
2022-09-21T08:14:05.075Z,9.73
2022-09-21T08:16:34.169Z,8.88
2022-09-21T08:19:02.244Z,8.20
2022-09-21T08:21:29.280Z,9.40
2022-09-21T08:23:56.204Z,9.38
2022-09-21T08:26:23.919Z,9.40
2022-09-21T08:28:53.313Z,9.55
2022-09-21T08:31:23.167Z,8.88
2022-09-21T08:33:52.513Z,10.35
2022-09-21T08:36:19.856Z,9.52
2022-09-21T08:38:48.127Z,8.85
2022-09-21T08:41:32.947Z,10.32
2022-09-21T08:44:19.195Z,8.55
2022-09-21T08:47:01.501Z,8.95
2022-09-21T08:49:30.058Z,8.15
2022-09-21T08:52:02.045Z,8.43
2022-09-21T08:54:53.285Z,7.75
2022-09-21T08:57:23.408Z,7.78
2022-09-21T08:59:50.715Z,7.20
2022-09-21T09:02:59.741Z,6.90
2022-09-21T09:06:34.144Z,7.10
2022-09-21T09:09:55.211Z,7.20
2022-09-21T09:13:22.932Z,6.55
2022-09-21T09:16:15.715Z,6.15
2022-09-21T09:18:51.334Z,7.05
2022-09-21T09:21:55.239Z,7.25
2022-09-21T09:24:47.375Z,6.70
2022-09-21T09:27:28.794Z,5.93
2022-09-21T09:30:12.752Z,5.38
2022-09-21T09:33:13.943Z,5.38
2022-09-21T09:35:47.101Z,4.97
2022-09-21T09:38:32.952Z,3.88
2022-09-21T09:41:20.901Z,3.72
2022-09-21T09:44:47.101Z,1.90
2022-09-21T09:47:29.589Z,2.40
2022-09-21T09:50:06.475Z,2.33
2022-09-21T09:52:34.218Z,1.80
2022-09-21T09:55:30.266Z,2.03
2022-09-21T09:57:59.016Z,2.05
2022-09-21T10:00:25.995Z,2.63
2022-09-21T10:02:58.730Z,2.00
2022-09-21T10:05:33.096Z,2.58
2022-09-21T10:08:00.820Z,2.33
2022-09-21T10:10:34.007Z,1.90
2022-09-21T10:13:34.289Z,1.88
2022-09-21T10:16:18.165Z,1.98
2022-09-21T10:18:49.868Z,2.95
2022-09-21T10:21:40.160Z,2.10
2022-09-21T10:24:26.222Z,2.40
2022-09-21T10:27:02.401Z,2.65
2022-09-21T10:29:49.337Z,3.20
2022-09-21T10:32:19.978Z,2.60
2022-09-21T10:35:13.690Z,2.30
2022-09-21T10:37:54.471Z,2.40
2022-09-21T10:40:21.439Z,2.17
2022-09-21T10:42:55.346Z,2.50
2022-09-21T10:45:29.658Z,2.88
2022-09-21T10:48:15.375Z,2.40
2022-09-21T10:50:46.899Z,2.42
2022-09-21T10:53:36.892Z,2.60
2022-09-21T10:56:18.949Z,2.03
2022-09-21T10:59:27.635Z,2.38
2022-09-21T11:01:58.463Z,2.65
2022-09-21T11:04:45.755Z,3.15
2022-09-21T11:07:34.198Z,2.60
2022-09-21T11:10:19.712Z,2.75
2022-09-21T11:12:55.647Z,2.83
2022-09-21T11:15:39.192Z,3.13
2022-09-21T11:18:32.078Z,2.15
2022-09-21T11:21:17.014Z,2.50
2022-09-21T11:24:17.818Z,2.70
2022-09-21T11:27:04.166Z,2.30
2022-09-21T11:29:47.886Z,2.30
2022-09-21T11:32:20.186Z,2.30
2022-09-21T11:35:47.384Z,1.70
2022-09-21T11:38:50.839Z,2.45
2022-09-21T11:41:35.817Z,2.38
2022-09-21T11:44:27.217Z,1.70
2022-09-21T11:47:29.483Z,1.65
2022-09-21T11:50:38.051Z,1.30
2022-09-21T11:53:25.958Z,1.40
2022-09-21T11:56:29.642Z,1.02
2022-09-21T11:59:17.691Z,1.13
2022-09-21T12:02:22.104Z,1.20
2022-09-21T12:05:36.399Z,1.10
2022-09-21T12:08:49.878Z,1.50
2022-09-21T12:11:40.039Z,2.13
2022-09-21T12:14:28.360Z,1.58
2022-09-21T12:17:38.214Z,1.30
2022-09-21T12:20:38.568Z,1.20
2022-09-21T12:23:33.513Z,1.20
2022-09-21T12:26:02.458Z,1.23
2022-09-21T12:28:39.587Z,0.98
2022-09-21T12:31:42.579Z,1.23
2022-09-21T12:34:27.589Z,1.20
2022-09-21T12:37:17.514Z,1.00
2022-09-21T12:40:08.133Z,0.82
2022-09-21T12:42:51.169Z,0.80
2022-09-21T12:45:32.374Z,1.48
2022-09-21T12:48:22.346Z,1.20
2022-09-21T12:50:56.223Z,1.30
2022-09-21T12:53:27.509Z,0.93
2022-09-21T12:56:14.889Z,1.23
2022-09-21T12:59:11.329Z,0.80
2022-09-21T13:02:15.524Z,1.05
2022-09-21T13:05:09.436Z,1.35
2022-09-21T13:07:54.271Z,1.23
2022-09-21T13:10:39.971Z,1.30
2022-09-21T13:13:18.895Z,1.42
2022-09-21T13:15:48.740Z,1.05
2022-09-21T13:18:38.721Z,1.40
2022-09-21T13:21:26.544Z,1.42
2022-09-21T13:24:03.919Z,1.20
2022-09-21T13:26:35.859Z,1.05
2022-09-21T13:29:17.655Z,1.30
2022-09-21T13:32:11.883Z,0.88
2022-09-21T13:34:41.375Z,1.20
2022-09-21T13:37:25.911Z,0.90
2022-09-21T13:40:01.964Z,1.27
2022-09-21T13:42:34.959Z,1.40
2022-09-21T13:45:15.082Z,1.27
2022-09-21T13:47:47.653Z,1.33
2022-09-21T13:50:33.135Z,1.02
2022-09-21T13:53:07.534Z,1.20
2022-09-21T13:55:53.905Z,1.45
2022-09-21T13:58:42.193Z,1.30
2022-09-21T14:01:49.440Z,1.27
2022-09-21T14:04:40.387Z,1.35
2022-09-21T14:07:08.602Z,1.15
2022-09-21T14:09:54.222Z,1.48
2022-09-21T14:12:25.569Z,1.33
2022-09-21T14:15:33.208Z,1.20
2022-09-21T14:18:16.405Z,1.17
2022-09-21T14:21:09.291Z,1.42
2022-09-21T14:23:40.241Z,1.30
2022-09-21T14:26:42.460Z,1.40
2022-09-21T14:29:45.754Z,1.20
2022-09-21T14:32:23.611Z,1.70
2022-09-21T14:34:59.838Z,1.20
2022-09-21T14:37:41.659Z,1.23
2022-09-21T14:40:31.384Z,1.63
2022-09-21T14:43:03.446Z,1.35
2022-09-21T14:46:17.544Z,1.35
2022-09-21T14:48:50.404Z,1.40
2022-09-21T14:51:44.496Z,1.60
2022-09-21T14:54:48.770Z,1.45
2022-09-21T14:58:14.511Z,1.55
2022-09-21T15:00:49.907Z,1.60
2022-09-21T15:03:28.853Z,1.40
2022-09-21T15:06:00.384Z,1.40
2022-09-21T15:09:11.813Z,1.73
2022-09-21T15:11:47.079Z,1.38
2022-09-21T15:14:32.667Z,1.42
2022-09-21T15:16:59.704Z,1.20
2022-09-21T15:19:30.104Z,1.02
2022-09-21T15:22:21.399Z,1.60
2022-09-21T15:25:03.510Z,1.17
2022-09-21T15:27:33.381Z,1.00
2022-09-21T15:30:05.520Z,1.60
2022-09-21T15:32:38.409Z,1.00
2022-09-21T15:35:18.912Z,1.50
2022-09-21T15:37:47.322Z,1.23
2022-09-21T15:40:24.709Z,1.73
2022-09-21T15:43:11.428Z,1.30
2022-09-21T15:46:02.011Z,1.30
2022-09-21T15:48:35.485Z,1.33
2022-09-21T15:51:39.972Z,1.42
2022-09-21T15:54:49.036Z,1.30
2022-09-21T15:57:39.177Z,1.55
2022-09-21T16:00:34.241Z,1.50
2022-09-21T16:03:22.713Z,1.80
2022-09-21T16:05:56.098Z,1.70
2022-09-21T16:08:39.645Z,1.45
2022-09-21T16:11:33.369Z,1.60
2022-09-21T16:14:35.255Z,1.50
2022-09-21T16:17:38.612Z,1.38
2022-09-21T16:20:17.316Z,1.30
2022-09-21T16:22:48.421Z,38.88
2022-09-21T16:25:37.201Z,26.73
2022-09-21T16:28:26.484Z,9.40
2022-09-21T16:30:56.288Z,16.20
2022-09-21T16:33:47.359Z,7.43
2022-09-21T16:36:20.594Z,5.15
2022-09-21T16:38:47.877Z,3.92
2022-09-21T16:41:14.945Z,7.88
2022-09-21T16:43:43.796Z,4.65
2022-09-21T16:46:11.875Z,1.65
2022-09-21T16:48:39.955Z,2.97
2022-09-21T16:51:13.602Z,1.50
2022-09-21T16:53:41.015Z,1.35
2022-09-21T16:56:15.349Z,1.30
2022-09-21T16:58:44.170Z,1.42
2022-09-21T17:01:20.692Z,1.13
2022-09-21T17:03:48.213Z,1.48
2022-09-21T17:06:20.584Z,1.40
2022-09-21T17:08:48.987Z,1.70
2022-09-21T17:11:20.205Z,1.77
2022-09-21T17:13:50.757Z,2.58
2022-09-21T17:16:20.071Z,4.60
2022-09-21T17:18:48.794Z,1.90
2022-09-21T17:21:16.780Z,1.80
2022-09-21T17:23:43.811Z,1.90
2022-09-21T17:26:17.817Z,1.83
2022-09-21T17:28:45.488Z,2.83
2022-09-21T17:31:16.580Z,2.80
2022-09-21T17:33:44.883Z,3.03
2022-09-21T17:36:16.711Z,2.28
2022-09-21T17:38:44.960Z,2.25
2022-09-21T17:41:52.418Z,1.52
2022-09-21T17:44:45.516Z,1.33
2022-09-21T17:47:29.779Z,1.42
2022-09-21T17:50:16.249Z,1.70
2022-09-21T17:53:03.086Z,1.50
2022-09-21T17:55:30.996Z,2.10
2022-09-21T17:58:34.488Z,1.90
2022-09-21T18:01:12.859Z,1.90
2022-09-21T18:03:44.543Z,2.23
2022-09-21T18:06:13.209Z,1.70
2022-09-21T18:08:41.014Z,1.80
2022-09-21T18:11:49.146Z,2.10
2022-09-21T18:14:25.000Z,2.00
2022-09-21T18:17:20.024Z,1.70
2022-09-21T18:20:06.978Z,2.00
2022-09-21T18:22:39.026Z,2.00
2022-09-21T18:25:23.446Z,2.33
2022-09-21T18:27:51.810Z,2.20
2022-09-21T18:30:18.888Z,1.90
2022-09-21T18:33:23.842Z,2.03
2022-09-21T18:36:31.709Z,2.37
2022-09-21T18:39:29.099Z,2.50
2022-09-21T18:42:06.245Z,2.20
2022-09-21T18:44:48.119Z,2.30
2022-09-21T18:47:25.248Z,2.30
2022-09-21T18:50:31.929Z,2.60
2022-09-21T18:53:12.671Z,3.20
2022-09-21T18:55:40.523Z,3.23
2022-09-21T18:58:08.694Z,8.07
2022-09-21T19:00:36.221Z,8.77
2022-09-21T19:03:23.655Z,4.27
2022-09-21T19:06:28.874Z,3.00
2022-09-21T19:09:08.291Z,3.10
2022-09-21T19:11:50.925Z,2.87
2022-09-21T19:14:41.898Z,2.70
2022-09-21T19:17:29.973Z,3.17
2022-09-21T19:20:28.695Z,2.90
2022-09-21T19:23:30.091Z,2.80
2022-09-21T19:26:24.569Z,3.20
2022-09-21T19:29:32.418Z,3.10
2022-09-21T19:31:59.568Z,3.53
2022-09-21T19:34:28.111Z,3.30
2022-09-21T19:36:57.376Z,3.70
2022-09-21T19:39:24.933Z,3.10
2022-09-21T19:42:32.271Z,2.93
2022-09-21T19:45:29.983Z,2.90
2022-09-21T19:48:13.776Z,3.13
2022-09-21T19:50:57.243Z,2.97
2022-09-21T19:53:43.568Z,3.47
2022-09-21T19:56:34.191Z,3.10
2022-09-21T19:59:20.642Z,3.40
2022-09-21T20:01:55.657Z,3.17
2022-09-21T20:04:38.506Z,3.30
2022-09-21T20:07:56.818Z,3.20
2022-09-21T20:10:25.076Z,3.10
2022-09-21T20:13:20.911Z,3.47
2022-09-21T20:15:49.888Z,3.63
2022-09-21T20:18:46.668Z,3.80
2022-09-21T20:21:18.836Z,3.63
2022-09-21T20:23:51.471Z,4.17
2022-09-21T20:26:27.696Z,4.10
2022-09-21T20:28:55.396Z,3.60
2022-09-21T20:31:25.473Z,3.87
2022-09-21T20:33:52.756Z,4.37
2022-09-21T20:36:19.721Z,5.73
2022-09-21T20:38:47.077Z,5.20
2022-09-21T20:41:16.808Z,5.03
2022-09-21T20:43:43.942Z,4.70
2022-09-21T20:46:11.701Z,4.53
2022-09-21T20:48:40.108Z,5.33
2022-09-21T20:51:07.136Z,6.27
2022-09-21T20:53:34.650Z,7.13
2022-09-21T20:56:02.164Z,6.80
2022-09-21T20:58:30.259Z,6.67
2022-09-21T21:01:04.800Z,6.30
2022-09-21T21:03:31.793Z,5.80
2022-09-21T21:06:18.721Z,5.43
2022-09-21T21:08:46.328Z,5.87
2022-09-21T21:11:14.581Z,5.27
2022-09-21T21:13:42.596Z,6.40
2022-09-21T21:16:12.102Z,5.70
2022-09-21T21:18:40.975Z,6.03
2022-09-21T21:21:08.094Z,6.13
2022-09-21T21:23:55.016Z,5.53
2022-09-21T21:26:29.472Z,5.47
2022-09-21T21:29:09.440Z,5.23
2022-09-21T21:31:36.548Z,4.87
2022-09-21T21:34:03.599Z,5.43
2022-09-21T21:36:30.533Z,5.53
2022-09-21T21:38:57.661Z,5.00
2022-09-21T21:41:24.765Z,5.03
2022-09-21T21:43:51.733Z,4.50
2022-09-21T21:46:18.742Z,4.50
2022-09-21T21:48:45.855Z,4.53
2022-09-21T21:51:12.903Z,4.37
2022-09-21T21:53:40.603Z,4.83
2022-09-21T21:56:14.034Z,5.00
2022-09-21T21:58:42.131Z,5.67
2022-09-21T22:01:21.780Z,5.20
2022-09-21T22:03:55.008Z,4.40
2022-09-21T22:06:22.737Z,5.10
2022-09-21T22:08:50.525Z,4.63
2022-09-21T22:11:18.112Z,4.87
2022-09-21T22:13:46.105Z,5.00
2022-09-21T22:16:17.814Z,4.77
2022-09-21T22:18:46.248Z,5.60
2022-09-21T22:21:18.294Z,5.70
2022-09-21T22:23:45.221Z,5.93
2022-09-21T22:26:17.339Z,5.70
2022-09-21T22:28:48.775Z,5.50
2022-09-21T22:31:19.304Z,5.60
2022-09-21T22:33:46.920Z,5.23
2022-09-21T22:36:19.034Z,5.13
2022-09-21T22:38:47.431Z,4.73
2022-09-21T22:41:18.028Z,4.70
2022-09-21T22:43:47.114Z,4.83
2022-09-21T22:46:16.504Z,4.97
2022-09-21T22:48:44.424Z,4.77
2022-09-21T22:51:12.733Z,4.90
2022-09-21T22:53:39.730Z,5.30
2022-09-21T22:56:07.418Z,5.50
2022-09-21T22:58:37.900Z,5.50
2022-09-21T23:01:12.381Z,5.93
2022-09-21T23:03:41.829Z,5.80
2022-09-21T23:06:11.891Z,5.67
2022-09-21T23:08:39.244Z,5.70
2022-09-21T23:11:19.826Z,5.10
2022-09-21T23:13:47.123Z,5.37
2022-09-21T23:16:15.683Z,5.60
2022-09-21T23:18:43.929Z,6.07
2022-09-21T23:21:14.459Z,5.80
2022-09-21T23:23:42.240Z,5.20
2022-09-21T23:26:10.520Z,5.57
2022-09-21T23:28:39.379Z,4.93
2022-09-21T23:31:09.963Z,5.07
2022-09-21T23:33:44.025Z,5.33
2022-09-21T23:36:14.745Z,5.50
2022-09-21T23:38:42.251Z,6.17
2022-09-21T23:41:17.725Z,5.97
2022-09-21T23:43:45.500Z,5.90
2022-09-21T23:46:16.580Z,5.67
2022-09-21T23:48:43.954Z,5.77
2022-09-21T23:51:11.499Z,6.50
2022-09-21T23:53:39.441Z,5.70
2022-09-21T23:56:08.199Z,5.80
2022-09-21T23:58:35.330Z,6.40
